Theta, North Carolina
Current Conditions -  °F | °C
As of 4:55 PM on Saturday 25 Oct 2014 (Local Time) from KGEV Reporting Station
Broken Clouds Broken Clouds  
Wind Chill: 64°   Ceiling: 4400
Heat Index: 64°   Visibility: 10mi
Dew Point: 32°   Wind: 13mph
Humidity: 31%   Direction: 300°WNW
Pressure: 30.01"   Gusts: 18mph
Location:  36.4009°N, 81.4072°W
Report Text: KGEV 252055Z AUTO 30011G16KT 10SM BKN044 BKN050 18/00 A3001 RMK AO2 T01760000
Loading
Personal Weather Stations






























Interactive Weather Map
Tropical Storm Tracking
New forecast layout! Learn more

10-Day Weather Forecast

Advertisements
Track Severe Weather on mobile